createdAt,value
2023-03-21T00:01:53.909Z,39.03
2023-03-21T00:04:23.767Z,39.55
2023-03-21T00:06:52.047Z,39.28
2023-03-21T00:09:20.244Z,40.92
2023-03-21T00:11:48.634Z,39.72
2023-03-21T00:14:19.091Z,41.05
2023-03-21T00:16:52.192Z,39.05
2023-03-21T00:19:21.934Z,40.05
2023-03-21T00:22:06.601Z,38.20
2023-03-21T00:24:36.218Z,36.70
2023-03-21T00:29:53.137Z,34.45
2023-03-21T00:32:21.974Z,36.50
2023-03-21T00:35:40.769Z,35.67
2023-03-21T00:37:38.986Z,35.00
2023-03-21T00:40:16.297Z,35.40
2023-03-21T00:42:52.116Z,33.25
2023-03-21T00:45:22.457Z,33.40
2023-03-21T00:47:50.791Z,33.28
2023-03-21T00:50:18.888Z,34.88
2023-03-21T00:52:46.895Z,33.55
2023-03-21T00:55:17.150Z,33.50
2023-03-21T00:57:50.099Z,31.38
2023-03-21T01:00:25.434Z,30.48
2023-03-21T01:03:17.577Z,31.20
2023-03-21T01:06:09.934Z,30.63
2023-03-21T01:08:51.860Z,31.55
2023-03-21T01:11:23.191Z,32.30
2023-03-21T01:13:59.657Z,32.88
2023-03-21T01:16:32.659Z,30.20
2023-03-21T01:19:02.150Z,31.45
2023-03-21T01:21:33.498Z,32.08
2023-03-21T01:24:02.440Z,32.85
2023-03-21T01:26:30.151Z,31.65
2023-03-21T01:28:58.478Z,31.27
2023-03-21T01:31:26.394Z,31.25
2023-03-21T01:33:54.323Z,30.17
2023-03-21T01:36:25.378Z,30.23
2023-03-21T01:38:57.841Z,31.27
2023-03-21T01:41:47.489Z,29.60
2023-03-21T01:44:25.052Z,29.60
2023-03-21T01:47:10.552Z,27.75
2023-03-21T01:50:02.849Z,27.85
2023-03-21T01:52:42.170Z,29.35
2023-03-21T01:55:28.791Z,30.20
2023-03-21T01:58:18.425Z,31.38
2023-03-21T02:01:10.463Z,29.48
2023-03-21T02:03:53.094Z,29.23
2023-03-21T02:06:53.956Z,29.13
2023-03-21T02:09:40.441Z,30.05
2023-03-21T02:12:16.567Z,29.88
2023-03-21T02:14:48.675Z,28.90
2023-03-21T02:18:05.627Z,30.40
2023-03-21T02:21:03.102Z,28.50
2023-03-21T02:23:51.956Z,29.55
2023-03-21T02:26:40.899Z,29.80
2023-03-21T02:29:31.022Z,28.25
2023-03-21T02:32:36.656Z,29.05
2023-03-21T02:35:15.375Z,29.77
2023-03-21T02:37:52.023Z,29.30
2023-03-21T02:40:28.817Z,29.35
2023-03-21T02:43:09.338Z,28.80
2023-03-21T02:45:57.517Z,28.42
2023-03-21T02:48:44.400Z,31.77
2023-03-21T02:51:21.437Z,29.55
2023-03-21T02:54:23.710Z,29.27
2023-03-21T02:56:46.040Z,30.10
2023-03-21T02:59:16.957Z,30.73
2023-03-21T03:01:46.482Z,31.38
2023-03-21T03:04:22.952Z,28.33
2023-03-21T03:07:18.521Z,30.05
2023-03-21T03:10:17.342Z,28.05
2023-03-21T03:12:52.399Z,28.55
2023-03-21T03:15:24.548Z,28.20
2023-03-21T03:18:20.010Z,27.67
2023-03-21T03:21:11.208Z,27.83
2023-03-21T03:23:58.655Z,29.08
2023-03-21T03:26:34.410Z,27.30
2023-03-21T03:29:13.977Z,26.58
2023-03-21T03:31:49.457Z,26.48
2023-03-21T03:34:21.172Z,26.17
2023-03-21T03:36:56.577Z,27.65
2023-03-21T03:39:36.260Z,25.80
2023-03-21T03:42:25.499Z,25.67
2023-03-21T03:45:01.177Z,26.75
2023-03-21T03:47:39.884Z,26.00
2023-03-21T03:50:13.974Z,25.15
2023-03-21T03:52:55.840Z,23.50
2023-03-21T03:55:28.334Z,24.67
2023-03-21T03:58:06.429Z,25.73
2023-03-21T04:00:39.329Z,24.33
2023-03-21T04:03:07.595Z,24.65
2023-03-21T04:05:35.486Z,23.90
2023-03-21T04:08:03.907Z,23.50
2023-03-21T04:10:39.126Z,24.55
2023-03-21T04:13:06.998Z,22.10
2023-03-21T04:15:54.053Z,23.17
2023-03-21T04:18:23.627Z,23.85
2023-03-21T04:20:51.703Z,23.52
2023-03-21T04:23:20.390Z,23.13
2023-03-21T04:25:56.602Z,27.15
2023-03-21T04:28:38.732Z,25.00
2023-03-21T04:31:31.595Z,25.27
2023-03-21T04:34:12.991Z,23.30
2023-03-21T04:36:51.227Z,24.17
2023-03-21T04:39:19.258Z,24.13
2023-03-21T04:41:50.732Z,25.05
2023-03-21T04:44:18.648Z,24.77
2023-03-21T04:46:48.229Z,24.25
2023-03-21T04:49:16.126Z,24.00
2023-03-21T04:51:45.631Z,24.00
2023-03-21T04:56:46.338Z,21.75
2023-03-21T04:59:16.984Z,22.80
2023-03-21T05:01:46.102Z,23.77
2023-03-21T05:04:15.027Z,23.88
2023-03-21T05:06:44.561Z,23.17
2023-03-21T05:09:13.440Z,23.90
2023-03-21T05:11:41.982Z,23.48
2023-03-21T05:14:16.188Z,23.70
2023-03-21T05:16:49.090Z,23.70
2023-03-21T05:19:19.420Z,20.88
2023-03-21T05:21:50.162Z,20.20
2023-03-21T05:24:22.773Z,21.58
2023-03-21T05:26:52.761Z,18.88
2023-03-21T05:29:26.033Z,19.30
2023-03-21T05:32:00.937Z,18.67
2023-03-21T05:34:30.236Z,19.30
2023-03-21T05:36:59.608Z,18.90
2023-03-21T05:39:37.121Z,18.98
2023-03-21T05:42:12.226Z,18.42
2023-03-21T05:44:41.121Z,18.98
2023-03-21T05:47:13.497Z,19.48
2023-03-21T05:49:45.719Z,18.10
2023-03-21T05:52:14.640Z,18.38
2023-03-21T05:54:42.585Z,18.48
2023-03-21T05:57:11.292Z,18.20
2023-03-21T05:59:51.596Z,17.63
2023-03-21T06:02:21.954Z,16.65
2023-03-21T06:04:51.563Z,17.80
2023-03-21T06:07:22.324Z,16.77
2023-03-21T06:09:51.649Z,17.55
2023-03-21T06:12:20.462Z,17.90
2023-03-21T06:15:01.761Z,17.80
2023-03-21T06:17:48.812Z,18.90
2023-03-21T06:20:17.962Z,18.15
2023-03-21T06:22:51.567Z,17.50
2023-03-21T06:25:20.356Z,18.58
2023-03-21T06:27:49.053Z,17.45
2023-03-21T06:30:18.993Z,20.20
2023-03-21T06:33:01.069Z,17.67
2023-03-21T06:35:29.013Z,17.67
2023-03-21T06:37:59.442Z,17.38
2023-03-21T06:40:32.158Z,16.80
2023-03-21T06:43:00.260Z,17.33
2023-03-21T06:45:28.464Z,16.30
2023-03-21T06:47:58.148Z,17.70
2023-03-21T06:50:35.921Z,17.77
2023-03-21T06:53:04.880Z,15.70
2023-03-21T06:55:37.391Z,15.73
2023-03-21T06:58:06.303Z,16.33
2023-03-21T07:00:34.317Z,15.88
2023-03-21T07:03:03.215Z,15.38
2023-03-21T07:05:37.429Z,14.90
2023-03-21T07:08:10.606Z,16.15
2023-03-21T07:10:45.355Z,14.05
2023-03-21T07:13:15.071Z,14.07
2023-03-21T07:18:15.442Z,15.80
2023-03-21T07:20:48.925Z,15.10
2023-03-21T07:23:21.979Z,15.80
2023-03-21T07:25:51.216Z,16.33
2023-03-21T07:28:19.845Z,16.38
2023-03-21T07:30:55.803Z,15.73
2023-03-21T07:33:25.401Z,16.55
2023-03-21T07:35:58.067Z,16.08
2023-03-21T07:38:27.009Z,15.63
2023-03-21T07:40:54.525Z,14.15
2023-03-21T07:43:23.852Z,16.02
2023-03-21T07:45:57.489Z,28.40
2023-03-21T07:48:27.968Z,19.10
2023-03-21T07:50:55.913Z,14.25
2023-03-21T07:53:23.817Z,18.25
2023-03-21T07:55:54.169Z,14.95
2023-03-21T07:58:22.077Z,12.50
2023-03-21T08:00:49.902Z,11.50
2023-03-21T08:03:18.359Z,11.63
2023-03-21T08:05:47.927Z,13.20
2023-03-21T08:08:17.205Z,12.40
2023-03-21T08:10:46.311Z,13.45
2023-03-21T08:13:15.068Z,13.00
2023-03-21T08:15:43.699Z,12.32
2023-03-21T08:18:12.872Z,12.18
2023-03-21T08:20:42.496Z,11.30
2023-03-21T08:23:10.900Z,12.60
2023-03-21T08:25:40.499Z,11.82
2023-03-21T08:28:08.935Z,11.15
2023-03-21T08:30:38.263Z,12.02
2023-03-21T08:33:08.415Z,12.35
2023-03-21T08:35:39.619Z,11.05
2023-03-21T08:38:09.661Z,10.95
2023-03-21T08:40:37.856Z,10.18
2023-03-21T08:43:06.288Z,9.30
2023-03-21T08:45:34.325Z,10.85
2023-03-21T08:48:02.725Z,10.98
2023-03-21T08:50:32.098Z,10.80
2023-03-21T08:53:00.741Z,10.95
2023-03-21T08:55:28.667Z,10.20
2023-03-21T08:57:57.427Z,9.63
2023-03-21T09:00:26.085Z,11.07
2023-03-21T09:02:54.805Z,9.52
2023-03-21T09:05:23.127Z,9.85
2023-03-21T09:07:53.070Z,10.43
2023-03-21T09:10:23.321Z,11.20
2023-03-21T09:12:53.316Z,9.38
2023-03-21T09:15:26.816Z,8.98
2023-03-21T09:17:58.645Z,8.77
2023-03-21T09:20:31.565Z,8.20
2023-03-21T09:23:00.001Z,8.77
2023-03-21T09:25:31.841Z,9.25
2023-03-21T09:28:01.226Z,8.32
2023-03-21T09:30:31.707Z,7.30
2023-03-21T09:33:01.564Z,6.63
2023-03-21T09:35:30.131Z,7.30
2023-03-21T09:37:59.646Z,7.22
2023-03-21T09:40:46.148Z,7.18
2023-03-21T09:43:20.938Z,7.00
2023-03-21T09:46:00.189Z,7.65
2023-03-21T09:48:47.004Z,8.85
2023-03-21T09:51:22.613Z,8.00
2023-03-21T09:53:52.661Z,8.50
2023-03-21T09:56:21.490Z,8.85
2023-03-21T09:58:54.950Z,8.52
2023-03-21T10:01:33.379Z,8.75
2023-03-21T10:04:07.645Z,9.20
2023-03-21T10:06:39.733Z,8.90
2023-03-21T10:09:15.347Z,9.85
2023-03-21T10:11:48.874Z,8.80
2023-03-21T10:14:21.059Z,9.77
2023-03-21T10:17:05.094Z,8.70
2023-03-21T10:19:33.340Z,8.27
2023-03-21T10:22:03.109Z,6.10
2023-03-21T10:24:34.661Z,6.13
2023-03-21T10:27:04.034Z,5.72
2023-03-21T10:29:43.519Z,6.03
2023-03-21T10:32:14.493Z,6.78
2023-03-21T10:34:44.574Z,7.15
2023-03-21T10:37:14.498Z,7.25
2023-03-21T10:39:47.020Z,6.43
2023-03-21T10:42:26.407Z,8.35
2023-03-21T10:44:57.875Z,8.15
2023-03-21T10:47:32.133Z,6.35
2023-03-21T10:50:14.035Z,6.55
2023-03-21T10:53:00.629Z,6.30
2023-03-21T10:55:34.331Z,6.10
2023-03-21T11:00:43.678Z,6.68
2023-03-21T11:03:37.024Z,6.05
2023-03-21T11:09:15.209Z,6.60
2023-03-21T11:12:13.796Z,7.97
2023-03-21T11:14:47.522Z,7.88
2023-03-21T11:17:18.447Z,6.57
2023-03-21T11:19:50.715Z,7.35
2023-03-21T11:22:23.595Z,7.40
2023-03-21T11:24:55.075Z,7.15
2023-03-21T11:27:25.497Z,7.68
2023-03-21T11:29:53.232Z,6.70
2023-03-21T11:32:34.498Z,6.03
2023-03-21T11:35:02.714Z,6.70
2023-03-21T11:37:51.447Z,7.47
2023-03-21T11:40:28.121Z,7.15
2023-03-21T11:43:00.850Z,6.45
2023-03-21T11:45:34.484Z,14.43
2023-03-21T11:48:09.028Z,11.50
2023-03-21T11:50:40.643Z,8.93
2023-03-21T11:53:36.972Z,8.50
2023-03-21T11:56:11.453Z,7.63
2023-03-21T11:58:59.211Z,7.93
2023-03-21T12:01:27.706Z,7.13
2023-03-21T12:04:41.722Z,7.18
2023-03-21T12:07:34.621Z,7.70
2023-03-21T12:10:35.082Z,7.38
2023-03-21T12:13:05.850Z,7.30
2023-03-21T12:15:40.717Z,6.40
2023-03-21T12:18:14.639Z,6.55
2023-03-21T12:21:26.015Z,9.60
2023-03-21T12:24:03.124Z,6.88
2023-03-21T12:26:50.495Z,7.50
2023-03-21T12:29:41.140Z,6.25
2023-03-21T12:32:44.140Z,13.60
2023-03-21T12:35:39.418Z,7.03
2023-03-21T12:38:17.325Z,6.93
2023-03-21T12:41:03.843Z,6.80
2023-03-21T12:43:43.160Z,6.97
2023-03-21T12:46:42.383Z,6.20
2023-03-21T12:49:17.997Z,7.07
2023-03-21T12:51:49.191Z,7.35
2023-03-21T12:54:31.975Z,7.05
2023-03-21T12:57:06.168Z,7.70
2023-03-21T12:59:38.882Z,6.90
2023-03-21T13:02:27.624Z,7.15
2023-03-21T13:05:17.673Z,7.13
2023-03-21T13:07:55.322Z,6.15
2023-03-21T13:10:24.792Z,6.80
2023-03-21T13:13:10.188Z,6.40
2023-03-21T13:15:48.658Z,7.15
2023-03-21T13:18:17.031Z,6.50
2023-03-21T13:21:01.180Z,7.25
2023-03-21T13:23:37.813Z,6.88
2023-03-21T13:26:11.720Z,7.65
2023-03-21T13:28:41.420Z,6.35
2023-03-21T13:31:16.329Z,6.40
2023-03-21T13:33:48.470Z,6.80
2023-03-21T13:36:29.171Z,6.15
2023-03-21T13:39:06.597Z,6.28
2023-03-21T13:41:39.326Z,6.70
2023-03-21T13:44:19.595Z,4.85
2023-03-21T13:47:20.885Z,4.30
2023-03-21T13:50:24.804Z,4.40
2023-03-21T13:53:11.526Z,4.65
2023-03-21T13:55:46.063Z,4.32
2023-03-21T13:58:34.640Z,4.47
2023-03-21T14:01:28.077Z,4.45
2023-03-21T14:04:01.384Z,4.65
2023-03-21T14:06:36.325Z,4.80
2023-03-21T14:09:05.444Z,3.90
2023-03-21T14:11:34.866Z,4.57
2023-03-21T14:14:11.026Z,4.50
2023-03-21T14:16:39.393Z,4.07
2023-03-21T14:19:07.983Z,4.30
2023-03-21T14:21:36.745Z,4.40
2023-03-21T14:24:23.121Z,5.20
2023-03-21T14:26:54.095Z,6.55
2023-03-21T14:29:34.089Z,5.30
2023-03-21T14:32:04.187Z,5.80
2023-03-21T14:34:35.626Z,5.72
2023-03-21T14:37:08.105Z,6.20
2023-03-21T14:39:36.399Z,5.77
2023-03-21T14:42:12.576Z,5.10
2023-03-21T14:44:58.349Z,5.20
2023-03-21T14:47:29.551Z,5.68
2023-03-21T14:49:58.412Z,6.50
2023-03-21T14:52:33.251Z,5.40
2023-03-21T14:55:02.406Z,5.65
2023-03-21T14:57:32.337Z,5.55
2023-03-21T15:00:02.637Z,5.70
2023-03-21T15:02:37.287Z,5.78
2023-03-21T15:05:31.877Z,5.45
2023-03-21T15:08:19.051Z,5.15
2023-03-21T15:11:08.279Z,5.50
2023-03-21T15:13:45.804Z,5.78
2023-03-21T15:16:15.580Z,5.10
2023-03-21T15:18:45.103Z,5.82
2023-03-21T15:21:17.693Z,5.82
2023-03-21T15:23:53.465Z,6.32
2023-03-21T15:26:25.608Z,6.88
2023-03-21T15:28:59.376Z,6.93
2023-03-21T15:31:36.071Z,6.63
2023-03-21T15:34:04.998Z,7.55
2023-03-21T15:36:44.338Z,9.13
2023-03-21T15:39:18.697Z,7.00
2023-03-21T15:42:08.071Z,6.78
2023-03-21T15:44:36.847Z,7.53
2023-03-21T15:47:05.542Z,6.25
2023-03-21T15:49:35.152Z,6.82
2023-03-21T15:52:14.858Z,5.90
2023-03-21T15:54:50.421Z,5.72
2023-03-21T15:57:29.959Z,5.88
2023-03-21T16:00:13.604Z,6.80
2023-03-21T16:02:42.714Z,6.43
2023-03-21T16:05:33.318Z,5.43
2023-03-21T16:08:32.235Z,6.07
2023-03-21T16:11:12.561Z,6.00
2023-03-21T16:13:41.102Z,5.75
2023-03-21T16:16:27.449Z,5.65
2023-03-21T16:18:57.120Z,5.88
2023-03-21T16:21:28.718Z,6.55
2023-03-21T16:23:58.415Z,5.82
2023-03-21T16:26:37.115Z,9.07
2023-03-21T16:29:06.239Z,9.48
2023-03-21T16:31:37.408Z,15.88
2023-03-21T16:34:05.557Z,18.70
2023-03-21T16:36:39.051Z,21.08
2023-03-21T16:39:21.895Z,17.25
2023-03-21T16:41:52.067Z,9.93
2023-03-21T16:44:20.797Z,8.73
2023-03-21T16:46:50.336Z,8.77
2023-03-21T16:49:23.918Z,6.97
2023-03-21T16:51:54.091Z,7.00
2023-03-21T16:54:23.115Z,7.80
2023-03-21T16:56:55.855Z,8.02
2023-03-21T16:59:24.260Z,7.93
2023-03-21T17:01:52.582Z,7.20
2023-03-21T17:04:20.583Z,7.80
2023-03-21T17:06:51.367Z,8.15
2023-03-21T17:09:22.165Z,7.82
2023-03-21T17:11:50.624Z,8.45
2023-03-21T17:14:19.185Z,8.43
2023-03-21T17:16:47.724Z,9.35
2023-03-21T17:19:24.168Z,7.82
2023-03-21T17:21:52.713Z,9.15
2023-03-21T17:24:20.568Z,7.88
2023-03-21T17:26:48.664Z,9.40
2023-03-21T17:29:16.802Z,7.30
2023-03-21T17:31:47.616Z,8.82
2023-03-21T17:34:16.122Z,9.32
2023-03-21T17:36:46.689Z,7.53
2023-03-21T17:39:21.451Z,8.63
2023-03-21T17:41:51.091Z,8.38
2023-03-21T17:44:20.479Z,8.98
2023-03-21T17:46:52.386Z,9.13
2023-03-21T17:49:21.462Z,9.20
2023-03-21T17:51:50.792Z,9.10
2023-03-21T17:54:19.028Z,9.38
2023-03-21T17:56:47.478Z,9.18
2023-03-21T17:59:15.669Z,9.52
2023-03-21T18:01:43.523Z,9.35
2023-03-21T18:04:11.290Z,9.10
2023-03-21T18:06:39.750Z,11.15
2023-03-21T18:09:11.926Z,10.45
2023-03-21T18:11:41.538Z,9.68
2023-03-21T18:14:17.537Z,12.85
2023-03-21T18:16:48.279Z,14.40
2023-03-21T18:19:16.879Z,13.25
2023-03-21T18:21:46.028Z,14.55
2023-03-21T18:24:15.073Z,14.85
2023-03-21T18:26:44.504Z,15.55
2023-03-21T18:32:08.255Z,18.55
2023-03-21T18:34:39.090Z,19.00
2023-03-21T18:37:09.064Z,19.98
2023-03-21T18:39:38.252Z,26.98
2023-03-21T18:42:07.529Z,27.90
2023-03-21T18:44:45.510Z,39.55
2023-03-21T18:47:14.890Z,25.38
2023-03-21T18:50:13.126Z,25.25
2023-03-21T18:52:32.726Z,22.00
2023-03-21T18:55:00.858Z,22.33
2023-03-21T18:57:37.018Z,21.92
2023-03-21T19:00:14.196Z,22.15
2023-03-21T19:02:47.727Z,33.38
2023-03-21T19:07:47.174Z,27.00
2023-03-21T19:10:18.939Z,24.17
2023-03-21T19:15:22.191Z,19.88
2023-03-21T19:20:45.324Z,23.25
2023-03-21T19:23:13.952Z,23.75
2023-03-21T19:25:43.297Z,22.05
2023-03-21T19:28:11.923Z,17.88
2023-03-21T19:30:40.182Z,18.85
2023-03-21T19:33:09.437Z,22.73
2023-03-21T19:35:40.926Z,21.45
2023-03-21T19:38:12.330Z,23.50
2023-03-21T19:40:42.008Z,26.17
2023-03-21T19:43:31.121Z,24.55
2023-03-21T19:46:01.153Z,23.60
2023-03-21T19:48:29.954Z,26.48
2023-03-21T19:51:26.267Z,29.05
2023-03-21T19:53:46.609Z,24.05
2023-03-21T19:56:22.433Z,22.67
2023-03-21T19:58:52.586Z,28.55
2023-03-21T20:01:21.429Z,33.55
2023-03-21T20:03:50.131Z,26.33
2023-03-21T20:06:18.785Z,24.95
2023-03-21T20:09:27.330Z,24.75
2023-03-21T20:11:36.216Z,27.42
2023-03-21T20:14:05.533Z,27.80
2023-03-21T20:16:35.672Z,27.50
2023-03-21T20:19:06.482Z,26.95
2023-03-21T20:21:44.415Z,26.83
2023-03-21T20:24:17.137Z,27.73
2023-03-21T20:26:46.237Z,26.20
2023-03-21T20:32:03.472Z,31.38
2023-03-21T20:34:33.795Z,32.70
2023-03-21T20:37:04.056Z,31.67
2023-03-21T20:39:34.278Z,38.15
2023-03-21T20:42:02.562Z,37.90
2023-03-21T20:47:19.602Z,48.47
2023-03-21T20:49:49.506Z,41.10
2023-03-21T20:55:10.027Z,39.30
2023-03-21T20:57:39.124Z,34.55
2023-03-21T21:00:18.785Z,32.00
2023-03-21T21:02:50.793Z,35.97
2023-03-21T21:05:32.892Z,35.25
2023-03-21T21:08:03.861Z,35.15
2023-03-21T21:10:33.674Z,36.72
2023-03-21T21:13:02.022Z,37.30
2023-03-21T21:15:30.227Z,35.55
2023-03-21T21:18:08.054Z,35.25
2023-03-21T21:20:38.776Z,36.03
2023-03-21T21:23:07.030Z,33.78
2023-03-21T21:25:35.565Z,35.90
2023-03-21T21:28:09.275Z,35.72
2023-03-21T21:30:41.900Z,35.97
2023-03-21T21:33:10.236Z,35.83
2023-03-21T21:35:38.890Z,37.80
2023-03-21T21:38:08.642Z,47.20
2023-03-21T21:40:38.532Z,70.22
2023-03-21T21:43:06.883Z,58.72
2023-03-21T21:45:37.675Z,48.88
2023-03-21T21:48:07.109Z,42.70
2023-03-21T21:50:36.932Z,41.50
2023-03-21T21:53:06.530Z,41.03
2023-03-21T21:55:34.984Z,38.92
2023-03-21T21:58:04.621Z,39.08
2023-03-21T22:00:33.264Z,39.50
2023-03-21T22:03:02.365Z,38.10
2023-03-21T22:05:31.071Z,37.55
2023-03-21T22:07:58.783Z,38.13
2023-03-21T22:10:27.915Z,38.08
2023-03-21T22:12:55.988Z,40.65
2023-03-21T22:15:24.653Z,38.50
2023-03-21T22:17:52.937Z,40.38
2023-03-21T22:20:22.216Z,42.50
2023-03-21T22:22:50.400Z,40.88
2023-03-21T22:25:18.967Z,44.13
2023-03-21T22:27:47.698Z,37.78
2023-03-21T22:30:18.166Z,38.03
2023-03-21T22:32:56.428Z,38.92
2023-03-21T22:35:27.818Z,41.72
2023-03-21T22:37:55.707Z,38.80
2023-03-21T22:40:24.752Z,38.08
2023-03-21T22:42:52.600Z,41.38
2023-03-21T22:45:21.240Z,40.50
2023-03-21T22:47:49.281Z,39.72
2023-03-21T22:50:18.130Z,41.50
2023-03-21T22:52:46.497Z,40.10
2023-03-21T22:55:14.669Z,40.22
2023-03-21T22:57:42.365Z,41.15
2023-03-21T23:00:13.866Z,39.78
2023-03-21T23:02:42.824Z,40.42
2023-03-21T23:05:11.204Z,40.00
2023-03-21T23:07:40.309Z,44.60
2023-03-21T23:10:09.122Z,41.90
2023-03-21T23:12:37.848Z,40.60
2023-03-21T23:15:07.902Z,38.30
2023-03-21T23:17:35.973Z,43.60
2023-03-21T23:20:08.804Z,39.80
2023-03-21T23:22:37.201Z,40.08
2023-03-21T23:25:06.828Z,37.80
2023-03-21T23:27:35.637Z,39.42
2023-03-21T23:30:07.302Z,39.08
2023-03-21T23:32:35.796Z,39.58
2023-03-21T23:35:04.485Z,39.65
2023-03-21T23:37:32.292Z,39.50
2023-03-21T23:40:00.582Z,37.00
2023-03-21T23:42:29.439Z,38.65
2023-03-21T23:44:57.467Z,41.85
2023-03-21T23:47:25.698Z,48.17
2023-03-21T23:49:53.613Z,45.15
2023-03-21T23:52:21.849Z,40.67
2023-03-21T23:54:50.074Z,50.40
2023-03-21T23:57:18.350Z,45.08
2023-03-21T23:59:47.212Z,56.75
